Wyano, Pennsylvania
Current Conditions -  °F | °C
As of 8:53 AM on Thursday 30 Oct 2014 (Local Time) from KAGC Reporting Station
Clear Clear  
Wind Chill: 35°   Ceiling: Unl
Heat Index: 40°   Visibility: 8mi
Dew Point: 33°   Wind: 7mph
Humidity: 77%   Direction: 260°W
Pressure: 30.09"   Gusts: NA
Location:  40.2°N, 79.7°W
Report Text: KAGC 301253Z 26006KT 8SM CLR 04/01 A3009 RMK AO2 SLP201 T00440006
Loading
Personal Weather Stations






























Interactive Weather Map
Tropical Storm Tracking
New forecast layout! Learn more

10-Day Weather Forecast

Advertisements
Track Severe Weather on mobile